createdAt,value
2022-11-24T00:00:14.935Z,99523.34
2022-11-24T00:02:48.455Z,99520.69
2022-11-24T00:05:23.060Z,99508.38
2022-11-24T00:07:56.543Z,99508.38
2022-11-24T00:10:31.515Z,99507.63
2022-11-24T00:13:04.987Z,99514.69
2022-11-24T00:15:38.444Z,99512.97
2022-11-24T00:18:11.972Z,99512.19
2022-11-24T00:20:53.109Z,99521.94
2022-11-24T00:23:26.941Z,99531.59
2022-11-24T00:26:08.029Z,99523.66
2022-11-24T00:28:42.484Z,99520.25
2022-11-24T00:31:19.362Z,99519.47
2022-11-24T00:33:55.203Z,99518.66
2022-11-24T00:36:32.741Z,99527.59
2022-11-24T00:39:08.751Z,99531.16
2022-11-24T00:41:44.283Z,99527.72
2022-11-24T00:44:17.756Z,99514.69
2022-11-24T00:46:51.479Z,99532.28
2022-11-24T00:49:27.558Z,99528.72
2022-11-24T00:52:01.194Z,99526.16
2022-11-24T00:54:35.096Z,99533.19
2022-11-24T00:57:10.286Z,99527.09
2022-11-24T00:59:43.788Z,99521.78
2022-11-24T01:02:17.408Z,99528.78
2022-11-24T01:04:51.046Z,99532.31
2022-11-24T01:07:24.570Z,99532.31
2022-11-24T01:09:58.139Z,99528.78
2022-11-24T01:12:33.303Z,99539.28
2022-11-24T01:15:07.869Z,99527.91
2022-11-24T01:17:41.433Z,99536.66
2022-11-24T01:20:15.118Z,99533.16
2022-11-24T01:22:50.259Z,99536.66
2022-11-24T01:25:23.795Z,99531.38
2022-11-24T01:27:58.751Z,99526.09
2022-11-24T01:30:32.262Z,99527.84
2022-11-24T01:33:05.981Z,99533.09
2022-11-24T01:35:41.042Z,99532.25
2022-11-24T01:38:14.789Z,99534.91
2022-11-24T01:40:51.278Z,99539.31
2022-11-24T01:43:28.061Z,99548.13
2022-11-24T01:46:08.022Z,99549.00
2022-11-24T01:48:45.005Z,99549.91
2022-11-24T01:51:23.845Z,99543.78
2022-11-24T01:54:02.429Z,99543.78
2022-11-24T01:56:40.251Z,99540.28
2022-11-24T01:59:17.452Z,99538.59
2022-11-24T02:01:53.247Z,99532.47
2022-11-24T02:04:32.116Z,99540.31
2022-11-24T02:07:08.785Z,99536.84
2022-11-24T02:09:47.065Z,99542.09
2022-11-24T02:12:20.612Z,99535.06
2022-11-24T02:14:56.564Z,99538.56
2022-11-24T02:17:30.115Z,99539.44
2022-11-24T02:20:06.559Z,99541.97
2022-11-24T02:22:49.188Z,99533.19
2022-11-24T02:25:35.815Z,99535.81
2022-11-24T02:28:15.421Z,99526.19
2022-11-24T02:30:49.493Z,99536.72
2022-11-24T02:33:25.412Z,99532.13
2022-11-24T02:35:58.978Z,99534.13
2022-11-24T02:38:33.952Z,99542.13
2022-11-24T02:41:11.342Z,99537.72
2022-11-24T02:43:51.303Z,99539.50
2022-11-24T02:46:25.013Z,99538.59
2022-11-24T02:48:58.727Z,99530.66
2022-11-24T02:51:34.558Z,99539.34
2022-11-24T02:54:08.182Z,99533.25
2022-11-24T02:56:41.809Z,99542.00
2022-11-24T02:59:16.729Z,99539.44
2022-11-24T03:01:53.057Z,99538.53
2022-11-24T03:04:26.626Z,99542.91
2022-11-24T03:07:00.212Z,99537.59
2022-11-24T03:09:35.992Z,99538.50
2022-11-24T03:12:09.640Z,99537.63
2022-11-24T03:14:44.470Z,99544.59
2022-11-24T03:17:18.047Z,99549.81
2022-11-24T03:19:51.607Z,99549.84
2022-11-24T03:22:25.197Z,99549.81
2022-11-24T03:24:58.944Z,99549.81
2022-11-24T03:27:32.911Z,99549.88
2022-11-24T03:30:09.508Z,99549.06
2022-11-24T03:32:43.277Z,99554.44
2022-11-24T03:35:16.983Z,99546.53
2022-11-24T03:37:50.388Z,99552.44
2022-11-24T03:40:24.092Z,99550.91
2022-11-24T03:42:57.740Z,99557.06
2022-11-24T03:45:48.057Z,99554.44
2022-11-24T03:48:22.459Z,99553.50
2022-11-24T03:50:57.310Z,99549.09
2022-11-24T03:53:32.209Z,99559.63
2022-11-24T03:56:07.043Z,99562.25
2022-11-24T03:58:40.582Z,99557.94
2022-11-24T04:01:15.583Z,99561.50
2022-11-24T04:03:49.079Z,99553.63
2022-11-24T04:06:22.636Z,99562.41
2022-11-24T04:08:56.283Z,99567.69
2022-11-24T04:11:47.321Z,99568.63
2022-11-24T04:14:21.166Z,99565.13
2022-11-24T04:16:56.033Z,99567.75
2022-11-24T04:19:29.692Z,99573.03
2022-11-24T04:22:03.284Z,99573.00
2022-11-24T04:24:36.950Z,99579.16
2022-11-24T04:27:10.419Z,99583.44
2022-11-24T04:29:43.957Z,99579.03
2022-11-24T04:32:19.209Z,99592.19
2022-11-24T04:34:52.746Z,99588.63
2022-11-24T04:37:26.359Z,99586.91
2022-11-24T04:39:59.962Z,99588.63
2022-11-24T04:42:33.579Z,99593.00
2022-11-24T04:45:08.583Z,99585.13
2022-11-24T04:47:43.656Z,99586.88
2022-11-24T04:50:17.863Z,99594.72
2022-11-24T04:52:51.538Z,99594.72
2022-11-24T04:55:25.049Z,99604.31
2022-11-24T04:57:58.697Z,99600.81
2022-11-24T05:00:35.262Z,99600.84
2022-11-24T05:03:10.442Z,99607.88
2022-11-24T05:05:44.127Z,99614.03
2022-11-24T05:08:17.752Z,99617.56
2022-11-24T05:10:51.324Z,99613.22
2022-11-24T05:13:25.392Z,99603.59
2022-11-24T05:16:00.031Z,99607.75
2022-11-24T05:18:35.321Z,99600.94
2022-11-24T05:21:08.922Z,99592.19
2022-11-24T05:23:42.598Z,99599.19
2022-11-24T05:26:16.235Z,99600.06
2022-11-24T05:28:49.942Z,99604.44
2022-11-24T05:31:23.568Z,99607.09
2022-11-24T05:33:58.563Z,99608.84
2022-11-24T05:36:49.798Z,99617.63
2022-11-24T05:39:24.116Z,99619.44
2022-11-24T05:41:57.555Z,99615.03
2022-11-24T05:44:31.468Z,99624.72
2022-11-24T05:47:05.234Z,99625.63
2022-11-24T05:49:40.383Z,99620.47
2022-11-24T05:52:14.262Z,99621.34
2022-11-24T05:54:47.938Z,99632.75
2022-11-24T05:57:21.519Z,99631.00
2022-11-24T05:59:55.106Z,99631.91
2022-11-24T06:02:28.959Z,99640.66
2022-11-24T06:05:03.732Z,99636.97
2022-11-24T06:07:37.396Z,99636.28
2022-11-24T06:10:11.392Z,99645.03
2022-11-24T06:12:44.887Z,99644.13
2022-11-24T06:15:18.794Z,99648.50
2022-11-24T06:17:56.394Z,99648.50
2022-11-24T06:20:32.891Z,99642.38
2022-11-24T06:23:07.023Z,99652.91
2022-11-24T06:25:41.030Z,99652.03
2022-11-24T06:28:14.435Z,99648.47
2022-11-24T06:30:48.467Z,99657.25
2022-11-24T06:33:22.002Z,99654.66
2022-11-24T06:36:02.368Z,99660.72
2022-11-24T06:38:37.149Z,99656.31
2022-11-24T06:41:14.902Z,99645.81
2022-11-24T06:43:48.561Z,99656.28
2022-11-24T06:46:22.684Z,99661.50
2022-11-24T06:48:55.866Z,99663.06
2022-11-24T06:51:30.989Z,99665.03
2022-11-24T06:54:08.441Z,99665.97
2022-11-24T06:56:41.997Z,99667.66
2022-11-24T06:59:20.342Z,99669.38
2022-11-24T07:01:54.169Z,99671.09
2022-11-24T07:04:27.649Z,99674.56
2022-11-24T07:07:03.752Z,99678.91
2022-11-24T07:09:37.328Z,99678.91
2022-11-24T07:12:10.818Z,99690.28
2022-11-24T07:14:44.526Z,99676.28
2022-11-24T07:17:18.189Z,99674.50
2022-11-24T07:19:51.787Z,99676.22
2022-11-24T07:22:27.096Z,99674.47
2022-11-24T07:25:00.881Z,99682.38
2022-11-24T07:27:35.106Z,99670.94
2022-11-24T07:30:12.741Z,99681.44
2022-11-24T07:32:46.400Z,99681.44
2022-11-24T07:35:20.074Z,99679.66
2022-11-24T07:37:57.743Z,99684.88
2022-11-24T07:40:31.424Z,99685.66
2022-11-24T07:43:05.015Z,99686.50
2022-11-24T07:45:39.008Z,99688.25
2022-11-24T07:48:12.598Z,99695.00
2022-11-24T07:50:49.911Z,99696.91
2022-11-24T07:53:27.811Z,99698.66
2022-11-24T07:56:03.141Z,99690.75
2022-11-24T07:58:41.063Z,99698.72
2022-11-24T08:01:19.151Z,99690.81
2022-11-24T08:03:52.795Z,99694.22
2022-11-24T08:06:40.854Z,99700.25
2022-11-24T08:09:22.102Z,99697.59
2022-11-24T08:11:58.618Z,99700.16
2022-11-24T08:14:32.427Z,99699.25
2022-11-24T08:17:05.828Z,99705.97
2022-11-24T08:19:39.638Z,99708.78
2022-11-24T08:22:13.281Z,99701.78
2022-11-24T08:24:49.390Z,99709.72
2022-11-24T08:27:23.172Z,99708.81
2022-11-24T08:30:01.085Z,99720.28
2022-11-24T08:32:34.726Z,99718.53
2022-11-24T08:35:14.723Z,99722.13
2022-11-24T08:37:51.426Z,99726.53
2022-11-24T08:40:26.732Z,99720.44
2022-11-24T08:43:00.277Z,99725.66
2022-11-24T08:45:39.727Z,99734.34
2022-11-24T08:48:14.845Z,99718.59
2022-11-24T08:50:48.642Z,99718.59
2022-11-24T08:53:22.368Z,99731.72
2022-11-24T08:56:03.026Z,99730.81
2022-11-24T08:58:37.564Z,99721.09
2022-11-24T09:01:14.235Z,99723.66
2022-11-24T09:03:51.159Z,99727.09
2022-11-24T09:06:27.176Z,99731.47
2022-11-24T09:09:01.199Z,99727.03
2022-11-24T09:11:36.644Z,99725.22
2022-11-24T09:14:10.264Z,99725.22
2022-11-24T09:16:44.025Z,99723.47
2022-11-24T09:19:17.575Z,99729.56
2022-11-24T09:21:51.651Z,99730.47
2022-11-24T09:24:25.505Z,99727.81
2022-11-24T09:27:03.098Z,99728.69
2022-11-24T09:29:36.888Z,99732.19
2022-11-24T09:32:10.573Z,99729.25
2022-11-24T09:34:46.805Z,99739.03
2022-11-24T09:37:20.624Z,99740.78
2022-11-24T09:39:54.244Z,99753.03
2022-11-24T09:42:39.066Z,99747.72
2022-11-24T09:45:41.626Z,99750.31
2022-11-24T09:48:25.706Z,99746.69
2022-11-24T09:51:02.193Z,99746.69
2022-11-24T09:53:39.408Z,99746.59
2022-11-24T09:56:23.911Z,99742.06
2022-11-24T09:59:04.129Z,99736.66
2022-11-24T10:01:43.559Z,99733.94
2022-11-24T10:04:21.073Z,99736.44
2022-11-24T10:07:02.961Z,99737.19
2022-11-24T10:09:57.382Z,99738.78
2022-11-24T10:12:51.316Z,99743.94
2022-11-24T10:15:32.686Z,99744.97
2022-11-24T10:18:38.361Z,99749.34
2022-11-24T10:21:29.618Z,99753.84
2022-11-24T10:24:24.716Z,99744.16
2022-11-24T10:27:04.028Z,99751.13
2022-11-24T10:29:42.268Z,99746.81
2022-11-24T10:32:20.595Z,99756.44
2022-11-24T10:34:57.394Z,99743.28
2022-11-24T10:37:36.704Z,99752.19
2022-11-24T10:40:55.487Z,99747.97
2022-11-24T10:43:17.881Z,99745.47
2022-11-24T10:45:52.116Z,99744.75
2022-11-24T10:48:30.393Z,99745.69
2022-11-24T10:51:40.510Z,99743.84
2022-11-24T10:54:18.312Z,99747.44
2022-11-24T10:56:57.214Z,99745.75
2022-11-24T10:59:38.820Z,99752.69
2022-11-24T11:02:34.489Z,99748.13
2022-11-24T11:05:38.148Z,99758.53
2022-11-24T11:08:21.297Z,99761.19
2022-11-24T11:11:16.007Z,99759.31
2022-11-24T11:14:01.563Z,99763.69
2022-11-24T11:16:38.488Z,99761.00
2022-11-24T11:19:48.820Z,99756.66
2022-11-24T11:22:31.451Z,99762.09
2022-11-24T11:25:16.185Z,99757.72
2022-11-24T11:27:50.353Z,99748.91
2022-11-24T11:36:19.575Z,99754.03
2022-11-24T11:38:55.206Z,99758.34
2022-11-24T11:41:33.843Z,99759.25
2022-11-24T11:44:18.807Z,99759.25
2022-11-24T11:46:53.013Z,99763.59
2022-11-24T11:49:26.779Z,99761.75
2022-11-24T11:52:19.726Z,99757.34
2022-11-24T11:55:14.989Z,99762.59
2022-11-24T11:57:56.495Z,99759.19
2022-11-24T12:00:35.360Z,99760.03
2022-11-24T12:03:43.327Z,99767.78
2022-11-24T12:06:30.234Z,99769.53
2022-11-24T12:09:21.041Z,99766.00
2022-11-24T12:12:14.469Z,99763.38
2022-11-24T12:15:08.965Z,99764.31
2022-11-24T12:17:49.174Z,99770.63
2022-11-24T12:20:38.801Z,99769.00
2022-11-24T12:23:23.941Z,99769.94
2022-11-24T12:26:08.446Z,99772.59
2022-11-24T12:28:53.930Z,99780.38
2022-11-24T12:31:33.879Z,99784.72
2022-11-24T12:34:25.584Z,99787.19
2022-11-24T12:37:14.070Z,99787.97
2022-11-24T12:39:54.924Z,99789.72
2022-11-24T12:42:40.343Z,99783.44
2022-11-24T12:45:17.990Z,99782.56
2022-11-24T12:48:20.038Z,99792.13
2022-11-24T12:51:01.836Z,99789.47
2022-11-24T12:53:38.344Z,99789.44
2022-11-24T12:56:15.828Z,99792.91
2022-11-24T12:58:53.977Z,99793.75
2022-11-24T13:01:38.459Z,99795.50
2022-11-24T13:04:20.180Z,99798.16
2022-11-24T13:07:01.287Z,99792.03
2022-11-24T13:09:34.961Z,99795.56
2022-11-24T13:12:14.222Z,99794.72
2022-11-24T13:14:50.191Z,99781.56
2022-11-24T13:17:36.344Z,99791.22
2022-11-24T13:20:27.537Z,99785.09
2022-11-24T13:23:03.645Z,99788.66
2022-11-24T13:25:38.080Z,99791.28
2022-11-24T13:29:01.764Z,99791.19
2022-11-24T13:31:41.350Z,99786.94
2022-11-24T13:34:32.745Z,99791.94
2022-11-24T13:37:31.327Z,99793.94
2022-11-24T13:40:59.850Z,99787.00
2022-11-24T13:43:38.079Z,99787.16
2022-11-24T13:46:11.967Z,99784.56
2022-11-24T13:49:01.324Z,99790.66
2022-11-24T13:51:35.207Z,99802.16
2022-11-24T13:54:12.493Z,99798.69
2022-11-24T13:56:46.301Z,99796.97
2022-11-24T13:59:29.888Z,99799.56
2022-11-24T14:02:19.722Z,99799.63
2022-11-24T14:04:53.381Z,99803.19
2022-11-24T14:07:27.262Z,99796.25
2022-11-24T14:10:03.729Z,99805.09
2022-11-24T14:12:37.510Z,99808.69
2022-11-24T14:15:26.577Z,99803.38
2022-11-24T14:18:00.538Z,99807.91
2022-11-24T14:20:34.203Z,99814.97
2022-11-24T14:23:11.579Z,99820.31
2022-11-24T14:25:50.997Z,99817.72
2022-11-24T14:28:27.303Z,99818.66
2022-11-24T14:31:22.086Z,99823.00
2022-11-24T14:34:16.546Z,99825.69
2022-11-24T14:36:50.839Z,99828.44
2022-11-24T14:39:26.293Z,99828.53
2022-11-24T14:42:05.142Z,99831.22
2022-11-24T14:44:48.295Z,99830.34
2022-11-24T14:47:30.923Z,99830.41
2022-11-24T14:50:15.861Z,99831.31
2022-11-24T14:52:53.748Z,99834.66
2022-11-24T14:55:29.491Z,99841.91
2022-11-24T14:58:20.654Z,99839.34
2022-11-24T15:01:10.495Z,99842.81
2022-11-24T15:03:44.093Z,99851.66
2022-11-24T15:06:24.329Z,99848.19
2022-11-24T15:08:57.920Z,99854.34
2022-11-24T15:11:32.531Z,99849.94
2022-11-24T15:14:42.276Z,99856.06
2022-11-24T15:17:21.227Z,99853.50
2022-11-24T15:19:59.846Z,99851.84
2022-11-24T15:22:41.782Z,99859.66
2022-11-24T15:25:35.694Z,99863.19
2022-11-24T15:28:13.238Z,99872.91
2022-11-24T15:30:54.465Z,99872.03
2022-11-24T15:33:28.560Z,99876.44
2022-11-24T15:36:02.547Z,99876.47
2022-11-24T15:38:36.283Z,99886.16
2022-11-24T15:41:20.582Z,99882.63
2022-11-24T15:43:59.050Z,99885.09
2022-11-24T15:46:38.283Z,99879.19
2022-11-24T15:49:12.125Z,99890.59
2022-11-24T15:51:47.625Z,99888.91
2022-11-24T15:54:21.426Z,99894.16
2022-11-24T15:56:55.152Z,99893.28
2022-11-24T15:59:28.730Z,99893.31
2022-11-24T16:02:03.812Z,99893.34
2022-11-24T16:04:39.236Z,99895.09
2022-11-24T16:07:13.988Z,99893.41
2022-11-24T16:09:47.554Z,99900.41
2022-11-24T16:12:21.169Z,99892.50
2022-11-24T16:14:54.726Z,99896.06
2022-11-24T16:17:29.852Z,99900.41
2022-11-24T16:20:06.478Z,99898.69
2022-11-24T16:22:40.020Z,99900.44
2022-11-24T16:25:14.061Z,99913.59
2022-11-24T16:27:47.555Z,99913.66
2022-11-24T16:30:21.961Z,99916.28
2022-11-24T16:32:57.008Z,99918.91
2022-11-24T16:35:30.652Z,99919.78
2022-11-24T16:38:06.578Z,99926.75
2022-11-24T16:40:40.144Z,99934.63
2022-11-24T16:43:13.638Z,99934.63
2022-11-24T16:45:47.196Z,99930.28
2022-11-24T16:48:22.077Z,99934.63
2022-11-24T16:50:55.584Z,99946.06
2022-11-24T16:53:31.770Z,99938.16
2022-11-24T16:56:05.683Z,99947.75
2022-11-24T16:58:40.171Z,99945.97
2022-11-24T17:01:15.130Z,99945.06
2022-11-24T17:03:50.209Z,99960.88
2022-11-24T17:06:24.527Z,99959.06
2022-11-24T17:08:58.031Z,99961.69
2022-11-24T17:11:31.639Z,99962.56
2022-11-24T17:14:06.050Z,99956.41
2022-11-24T17:16:39.902Z,99960.81
2022-11-24T17:19:14.936Z,99954.69
2022-11-24T17:21:48.372Z,99956.41
2022-11-24T17:24:21.925Z,99959.03
2022-11-24T17:26:55.559Z,99960.78
2022-11-24T17:29:30.215Z,99964.28
2022-11-24T17:32:03.820Z,99966.03
2022-11-24T17:34:39.031Z,99965.22
2022-11-24T17:37:12.850Z,99978.41
2022-11-24T17:39:59.996Z,99977.47
2022-11-24T17:42:40.089Z,99975.75
2022-11-24T17:45:13.814Z,99977.56
2022-11-24T17:47:47.511Z,99974.13
2022-11-24T17:50:26.394Z,99982.06
2022-11-24T17:53:00.149Z,99986.53
2022-11-24T17:55:35.352Z,99982.13
2022-11-24T17:58:08.859Z,99990.09
2022-11-24T18:00:44.904Z,99991.84
2022-11-24T18:03:21.472Z,99990.16
2022-11-24T18:05:56.866Z,99991.91
2022-11-24T18:08:30.356Z,99993.63
2022-11-24T18:11:08.163Z,99998.03
2022-11-24T18:13:58.517Z,100000.63
2022-11-24T18:16:36.151Z,100011.09
2022-11-24T18:19:13.062Z,100004.94
2022-11-24T18:21:48.243Z,100012.81
2022-11-24T18:24:24.196Z,100009.28
2022-11-24T18:26:58.027Z,100017.16
2022-11-24T18:29:31.834Z,100019.75
2022-11-24T18:32:05.913Z,100016.19
2022-11-24T18:34:39.438Z,100015.31
2022-11-24T18:37:16.498Z,100017.94
2022-11-24T18:39:50.059Z,100022.28
2022-11-24T18:42:25.787Z,100022.25
2022-11-24T18:44:59.382Z,100018.78
2022-11-24T18:47:35.363Z,100024.91
2022-11-24T18:50:12.974Z,100023.16
2022-11-24T18:52:47.884Z,100026.66
2022-11-24T18:55:21.475Z,100028.44
2022-11-24T18:57:56.244Z,100024.91
2022-11-24T19:00:29.931Z,100032.78
2022-11-24T19:03:03.556Z,100026.66
2022-11-24T19:05:37.320Z,100015.25
2022-11-24T19:08:12.379Z,100027.50
2022-11-24T19:10:45.900Z,100037.19
2022-11-24T19:13:19.620Z,100038.03
2022-11-24T19:15:53.329Z,100038.03
2022-11-24T19:18:27.200Z,100038.03
2022-11-24T19:21:00.701Z,100038.91
2022-11-24T19:23:38.077Z,100037.16
2022-11-24T19:26:14.091Z,100038.03
2022-11-24T19:28:47.749Z,100036.31
2022-11-24T19:31:21.926Z,100042.41
2022-11-24T19:33:55.491Z,100031.91
2022-11-24T19:36:29.176Z,100026.66
2022-11-24T19:39:05.355Z,100027.63
2022-11-24T19:41:39.229Z,100030.28
2022-11-24T19:44:13.949Z,100022.41
2022-11-24T19:46:47.698Z,100022.47
2022-11-24T19:49:21.218Z,100018.97
2022-11-24T19:51:54.920Z,100019.91
2022-11-24T19:54:29.950Z,100026.97
2022-11-24T19:57:03.664Z,100023.47
2022-11-24T19:59:37.402Z,100024.19
2022-11-24T20:02:12.753Z,100031.38
2022-11-24T20:04:46.469Z,100031.44
2022-11-24T20:07:20.624Z,100033.22
2022-11-24T20:09:55.736Z,100037.63
2022-11-24T20:12:29.222Z,100037.69
2022-11-24T20:15:02.883Z,100044.72
2022-11-24T20:17:36.450Z,100042.97
2022-11-24T20:20:10.484Z,100037.72
2022-11-24T20:22:43.662Z,100048.16
2022-11-24T20:25:20.310Z,100045.66
2022-11-24T20:27:53.824Z,100045.72
2022-11-24T20:30:27.358Z,100046.59
2022-11-24T20:33:01.325Z,100051.00
2022-11-24T20:35:34.499Z,100045.59
2022-11-24T20:38:08.089Z,100057.97
2022-11-24T20:40:42.964Z,100064.09
2022-11-24T20:43:16.433Z,100061.47
2022-11-24T20:45:49.976Z,100052.72
2022-11-24T20:48:23.478Z,100062.34
2022-11-24T20:51:02.497Z,100071.19
2022-11-24T20:53:38.195Z,100067.72
2022-11-24T20:56:18.893Z,100073.88
2022-11-24T20:58:57.702Z,100074.75
2022-11-24T21:01:35.179Z,100073.91
2022-11-24T21:04:11.091Z,100079.19
2022-11-24T21:06:44.705Z,100074.78
2022-11-24T21:09:18.901Z,100080.03
2022-11-24T21:11:54.921Z,100079.19
2022-11-24T21:14:32.481Z,100075.69
2022-11-24T21:17:08.845Z,100079.19
2022-11-24T21:19:42.376Z,100080.13
2022-11-24T21:22:16.095Z,100086.22
2022-11-24T21:24:50.427Z,100083.56
2022-11-24T21:27:25.385Z,100088.81
2022-11-24T21:29:58.904Z,100087.91
2022-11-24T21:32:32.432Z,100086.16
2022-11-24T21:35:06.568Z,100088.84
2022-11-24T21:37:40.109Z,100096.75
2022-11-24T21:40:15.743Z,100099.41
2022-11-24T21:42:50.676Z,100109.00
2022-11-24T21:45:24.347Z,100109.88
2022-11-24T21:47:58.108Z,100112.47
2022-11-24T21:50:31.924Z,100114.19
2022-11-24T21:53:05.406Z,100117.69
2022-11-24T21:55:38.861Z,100120.34
2022-11-24T21:58:14.027Z,100113.31
2022-11-24T22:00:47.548Z,100115.94
2022-11-24T22:03:21.957Z,100112.44
2022-11-24T22:05:56.045Z,100115.91
2022-11-24T22:08:32.754Z,100114.09
2022-11-24T22:11:07.367Z,100120.09
2022-11-24T22:13:44.878Z,100120.88
2022-11-24T22:16:22.722Z,100124.53
2022-11-24T22:18:56.201Z,100126.28
2022-11-24T22:21:35.745Z,100126.22
2022-11-24T22:24:21.796Z,100129.69
2022-11-24T22:26:59.499Z,100130.56
2022-11-24T22:29:41.827Z,100134.00
2022-11-24T22:32:21.346Z,100131.34
2022-11-24T22:34:55.130Z,100135.72
2022-11-24T22:37:28.677Z,100133.09
2022-11-24T22:40:02.232Z,100137.41
2022-11-24T22:42:35.661Z,100140.03
2022-11-24T22:45:11.818Z,100133.91
2022-11-24T22:47:45.251Z,100135.66
2022-11-24T22:50:18.952Z,100140.03
2022-11-24T22:52:52.685Z,100140.03
2022-11-24T22:55:26.120Z,100147.03
2022-11-24T22:57:59.531Z,100140.91
2022-11-24T23:00:34.484Z,100145.25
2022-11-24T23:03:08.086Z,100145.25
2022-11-24T23:05:41.597Z,100149.66
2022-11-24T23:08:15.091Z,100151.41
2022-11-24T23:10:48.667Z,100148.75
2022-11-24T23:13:22.143Z,100147.84
2022-11-24T23:16:01.513Z,100145.19
2022-11-24T23:18:35.948Z,100146.03
2022-11-24T23:21:12.859Z,100143.38
2022-11-24T23:23:47.002Z,100147.78
2022-11-24T23:26:22.337Z,100154.81
2022-11-24T23:28:55.807Z,100143.38
2022-11-24T23:31:30.868Z,100145.16
2022-11-24T23:34:05.330Z,100146.09
2022-11-24T23:36:38.897Z,100152.22
2022-11-24T23:39:14.526Z,100157.50
2022-11-24T23:41:48.004Z,100160.16
2022-11-24T23:44:22.236Z,100156.66
2022-11-24T23:46:57.090Z,100155.81
2022-11-24T23:49:31.025Z,100146.19
2022-11-24T23:52:04.485Z,100146.25
2022-11-24T23:54:37.928Z,100144.56
2022-11-24T23:57:11.372Z,100137.63
2022-11-24T23:59:44.775Z,100140.28
